Cincinnati, Ohio
Traffic Map
Current Weather Conditions
Cincinnati, Ohio
Clear
Clear
69°
Feels Like: 69°
Wind Chill: 69° Ceiling: Unl
Heat Index: 69° Visibility: 7mi
Dew Point: 69° Wind: 0mph
Humidity: 100% Direction: ° ()
Pressure: 30.02in Gusts: 0mph
Raw Report DataKLUK 310753Z AUTO 00000KT 7SM CLR 21/21 A3002 RMK AO2 SLP161 T02060206
Traffic Incident Summary
Active as of:
Severity:
Category:
InformationThere was an issue retrieving the traffic information for this location. Please try a different location or try again shortly.
Advertisements
Track Severe Weather on mobile